Time;durP1;ratioP1;P1;durP2;ratioP2;P2;SDS_P1;SDS_P2;PMS_P1;PMS_P2;Temp;Humidity;BMP_temperature;BMP_pressure;BME280_temperature;BME280_humidity;BME280_pressure;Samples;Min_cycle;Max_cycle;Signal;HPM_P1;HPM_P2
2022/05/18 00:00:32;;;;;;;10.95;5.95;;;15.40;99.90;;;;;;5095130;28;20186;-74
2022/05/18 00:03:10;;;;;;;6.28;5.72;;;15.30;99.90;;;;;;5089210;28;20183;-75
2022/05/18 00:05:38;;;;;;;6.43;5.93;;;15.30;99.90;;;;;;5075206;28;20250;-75
2022/05/18 00:08:05;;;;;;;6.43;5.93;;;15.30;99.90;;;;;;5085970;28;20568;-74
2022/05/18 00:10:31;;;;;;;6.38;5.88;;;15.20;99.90;;;;;;5095198;28;20257;-74
2022/05/18 00:12:58;;;;;;;6.53;5.93;;;15.10;99.90;;;;;;5083754;28;20191;-75
2022/05/18 00:15:25;;;;;;;6.13;5.63;;;15.10;99.90;;;;;;5092462;28;20560;-74
2022/05/18 00:17:51;;;;;;;6.68;6.13;;;15.00;99.90;;;;;;5095243;28;20191;-73
2022/05/18 00:20:18;;;;;;;6.40;5.90;;;15.00;99.90;;;;;;5094978;28;20170;-73
2022/05/18 00:22:49;;;;;;;5.93;5.43;;;14.90;99.90;;;;;;5088847;28;20179;-73
2022/05/18 00:25:17;;;;;;;5.85;5.45;;;14.90;99.90;;;;;;5074865;28;20168;-74
2022/05/18 00:27:42;;;;;;;6.85;6.25;;;14.80;99.90;;;;;;5083083;28;20206;-75
2022/05/18 00:30:10;;;;;;;6.60;6.00;;;14.70;99.90;;;;;;5086822;28;20206;-75
2022/05/18 00:32:36;;;;;;;6.97;6.47;;;14.60;99.90;;;;;;5094673;28;20190;-74
2022/05/18 00:35:03;;;;;;;6.25;5.82;;;14.60;99.90;;;;;;5094592;28;20159;-74
2022/05/18 00:37:28;;;;;;;6.43;5.82;;;14.60;99.90;;;;;;5085371;28;20211;-74
2022/05/18 00:39:54;;;;;;;6.05;5.63;;;14.40;99.90;;;;;;5074438;28;20171;-74
2022/05/18 00:42:22;;;;;;;6.38;5.88;;;14.30;99.90;;;;;;5092882;28;20257;-74
2022/05/18 00:44:47;;;;;;;6.28;5.78;;;14.30;99.90;;;;;;5093307;28;20190;-74
2022/05/18 00:47:13;;;;;;;6.90;6.40;;;14.30;99.90;;;;;;5073621;28;20187;-74
2022/05/18 00:49:45;;;;;;;6.85;6.25;;;14.30;99.90;;;;;;5073794;28;20206;-74
2022/05/18 00:52:12;;;;;;;6.35;5.85;;;14.40;99.90;;;;;;5073591;28;20549;-74
2022/05/18 00:54:38;;;;;;;7.03;6.38;;;14.40;99.90;;;;;;5073454;28;20184;-73
2022/05/18 00:57:13;;;;;;;9.30;6.50;;;14.40;99.90;;;;;;5076080;28;20187;-74
2022/05/18 00:59:53;;;;;;;6.40;6.00;;;14.30;99.90;;;;;;5093785;28;20648;-74
2022/05/18 01:02:21;;;;;;;6.78;6.22;;;14.30;99.90;;;;;;5088599;28;20583;-73
2022/05/18 01:04:50;;;;;;;6.90;6.30;;;14.30;99.90;;;;;;5073925;28;20626;-73
2022/05/18 01:07:34;;;;;;;6.97;6.38;;;14.40;99.90;;;;;;5073654;28;20202;-74
2022/05/18 01:10:00;;;;;;;6.47;5.97;;;14.50;99.90;;;;;;5073449;28;20238;-74
2022/05/18 01:12:26;;;;;;;7.80;6.25;;;14.50;99.90;;;;;;5076780;28;20193;-74
2022/05/18 01:15:08;;;;;;;7.53;6.82;;;14.60;99.90;;;;;;5094226;28;20167;-74
2022/05/18 01:17:38;;;;;;;7.95;7.15;;;14.60;99.90;;;;;;5089668;28;20263;-73
2022/05/18 01:20:08;;;;;;;7.80;7.20;;;14.50;99.90;;;;;;5073537;28;20179;-73
2022/05/18 01:23:02;;;;;;;7.50;6.78;;;14.50;99.90;;;;;;5091823;28;20182;-74
2022/05/18 01:25:50;;;;;;;7.78;6.53;;;14.40;99.90;;;;;;5089255;28;20179;-73
2022/05/18 01:28:16;;;;;;;6.70;6.13;;;14.40;99.90;;;;;;5082040;28;20240;-74
2022/05/18 01:30:46;;;;;;;8.98;7.18;;;14.40;99.90;;;;;;5093722;28;20171;-74
2022/05/18 01:33:13;;;;;;;8.15;7.05;;;14.50;99.90;;;;;;5089924;28;20635;-74
2022/05/18 01:35:42;;;;;;;11.20;6.97;;;14.50;99.90;;;;;;5088994;28;20257;-73
2022/05/18 01:38:12;;;;;;;7.40;6.70;;;14.50;99.90;;;;;;5092927;28;20232;-75
2022/05/18 01:41:03;;;;;;;7.93;7.05;;;14.40;99.90;;;;;;5091131;28;20228;-74
2022/05/18 01:43:47;;;;;;;7.68;7.03;;;14.50;99.90;;;;;;5094793;28;20180;-74
2022/05/18 01:46:16;;;;;;;8.30;7.32;;;14.50;99.90;;;;;;5091451;28;20174;-75
2022/05/18 01:48:49;;;;;;;7.43;6.78;;;14.50;99.90;;;;;;5092532;28;20324;-74
2022/05/18 01:51:26;;;;;;;8.00;7.20;;;14.40;99.90;;;;;;5102121;28;20547;-75
2022/05/18 01:53:51;;;;;;;8.25;7.45;;;14.30;99.90;;;;;;5097288;28;20170;-79
2022/05/18 01:56:17;;;;;;;7.93;7.22;;;14.20;99.90;;;;;;5104088;28;20258;-74
2022/05/18 01:58:43;;;;;;;8.75;7.95;;;14.10;99.90;;;;;;5099127;28;20625;-75
2022/05/18 02:01:08;;;;;;;8.38;7.38;;;14.10;99.90;;;;;;5086976;28;20654;-74
2022/05/18 02:03:34;;;;;;;8.00;7.30;;;14.00;99.90;;;;;;5090168;28;20174;-74
2022/05/18 02:06:00;;;;;;;9.02;8.27;;;13.90;99.90;;;;;;5093262;28;20216;-75
2022/05/18 02:08:25;;;;;;;8.02;7.32;;;13.80;99.90;;;;;;5093194;28;20198;-75
2022/05/18 02:10:51;;;;;;;8.45;7.63;;;13.80;99.90;;;;;;5078208;28;20182;-75
2022/05/18 02:13:17;;;;;;;8.48;7.75;;;13.80;99.90;;;;;;5090981;28;20178;-74
2022/05/18 02:15:44;;;;;;;8.02;7.30;;;13.70;99.90;;;;;;5093141;28;20167;-74
2022/05/18 02:18:10;;;;;;;8.30;7.60;;;13.70;99.90;;;;;;5091049;28;20186;-73
2022/05/18 02:20:35;;;;;;;8.85;8.15;;;13.70;99.90;;;;;;5088156;28;20175;-74
2022/05/18 02:23:02;;;;;;;9.20;8.35;;;13.70;99.90;;;;;;5072563;28;20198;-73
2022/05/18 02:25:28;;;;;;;8.55;7.82;;;13.60;99.90;;;;;;5088467;28;20577;-74
2022/05/18 02:27:55;;;;;;;8.30;7.55;;;13.60;99.90;;;;;;5075822;28;20744;-73
2022/05/18 02:30:21;;;;;;;8.48;7.78;;;13.60;99.90;;;;;;5091899;28;20186;-73
2022/05/18 02:32:47;;;;;;;7.97;7.38;;;13.50;99.90;;;;;;5092671;28;20170;-74
2022/05/18 02:35:13;;;;;;;9.20;8.43;;;13.50;99.90;;;;;;5097264;28;20174;-74
2022/05/18 02:37:39;;;;;;;9.25;8.40;;;13.50;99.90;;;;;;5100605;28;20211;-73
2022/05/18 02:40:07;;;;;;;8.88;8.18;;;13.50;99.90;;;;;;5091427;28;20211;-75
2022/05/18 02:42:33;;;;;;;8.50;7.78;;;13.50;99.90;;;;;;5092283;28;20170;-74
2022/05/18 02:44:58;;;;;;;8.82;8.15;;;13.40;99.90;;;;;;5101832;28;20197;-75
2022/05/18 02:47:24;;;;;;;9.38;8.38;;;13.40;99.90;;;;;;5103913;28;20182;-75
2022/05/18 02:49:51;;;;;;;9.10;8.40;;;13.30;99.90;;;;;;5104595;28;20708;-74
2022/05/18 02:52:17;;;;;;;9.80;8.93;;;13.30;99.90;;;;;;5116882;28;20218;-74
2022/05/18 02:57:27;;;;;;;9.95;8.93;;;13.20;99.90;;;;;;5102759;28;20236;-73
2022/05/18 02:59:53;;;;;;;9.30;8.32;;;13.20;99.90;;;;;;5100489;28;20178;-73
2022/05/18 03:02:19;;;;;;;9.57;8.77;;;13.20;99.90;;;;;;5104044;28;20177;-73
2022/05/18 03:04:45;;;;;;;10.35;9.35;;;13.10;99.90;;;;;;5098852;28;20177;-73
2022/05/18 03:07:11;;;;;;;10.93;8.63;;;13.10;99.90;;;;;;5107787;28;20174;-73
2022/05/18 03:09:37;;;;;;;9.55;8.68;;;13.00;99.90;;;;;;5096431;28;20231;-73
2022/05/18 03:12:04;;;;;;;9.23;8.43;;;13.00;99.90;;;;;;5095706;28;20209;-74
2022/05/18 03:14:29;;;;;;;9.90;9.02;;;13.00;99.90;;;;;;5095526;28;20204;-75
2022/05/18 03:16:55;;;;;;;9.65;8.93;;;13.00;99.90;;;;;;5095534;28;20250;-74
2022/05/18 03:19:23;;;;;;;9.50;8.60;;;13.00;99.90;;;;;;5103768;28;20233;-74
2022/05/18 03:24:32;;;;;;;9.07;8.32;;;13.00;99.90;;;;;;5103423;28;20177;-75
2022/05/18 03:26:58;;;;;;;9.57;8.77;;;12.90;99.90;;;;;;5099918;28;20179;-73
2022/05/18 03:29:24;;;;;;;9.55;8.73;;;12.90;99.90;;;;;;5080463;28;20748;-74
2022/05/18 03:31:50;;;;;;;8.93;8.15;;;12.90;99.90;;;;;;5077443;28;20182;-75
2022/05/18 03:34:15;;;;;;;9.70;8.70;;;13.00;99.90;;;;;;5091497;28;20171;-77
2022/05/18 03:36:42;;;;;;;9.95;9.15;;;13.00;99.90;;;;;;5101666;28;21035;-73
2022/05/18 03:39:09;;;;;;;9.30;8.57;;;13.00;99.90;;;;;;5100244;28;20873;-73
2022/05/18 03:41:34;;;;;;;8.32;7.72;;;13.00;99.90;;;;;;5102480;28;20269;-73
2022/05/18 03:44:02;;;;;;;8.55;7.82;;;13.00;99.90;;;;;;5104508;28;20735;-74
2022/05/18 03:46:27;;;;;;;9.65;8.70;;;12.90;99.90;;;;;;5101305;28;20181;-74
2022/05/18 03:48:53;;;;;;;8.57;7.93;;;12.90;99.90;;;;;;5105373;28;20194;-73
2022/05/18 03:51:19;;;;;;;9.10;8.35;;;13.00;99.90;;;;;;5098252;28;20616;-73
2022/05/18 03:53:46;;;;;;;8.82;8.10;;;13.00;99.90;;;;;;5091273;28;20566;-74
2022/05/18 03:56:12;;;;;;;9.07;8.38;;;13.00;99.90;;;;;;5089239;28;20238;-74
2022/05/18 03:58:37;;;;;;;9.07;8.23;;;13.00;99.90;;;;;;5089204;28;20226;-74
2022/05/18 04:01:08;;;;;;;10.25;9.35;;;13.00;99.90;;;;;;5095644;28;20568;-74
2022/05/18 04:03:35;;;;;;;9.75;8.85;;;13.10;99.90;;;;;;5095186;28;20175;-74
2022/05/18 04:06:04;;;;;;;10.68;9.77;;;13.10;99.90;;;;;;5095554;28;20178;-75
2022/05/18 04:08:29;;;;;;;10.95;9.90;;;13.10;99.90;;;;;;5092057;28;20214;-74
2022/05/18 04:10:56;;;;;;;10.43;9.52;;;13.10;99.90;;;;;;5095291;28;20166;-74
2022/05/18 04:13:24;;;;;;;9.50;8.70;;;13.10;99.90;;;;;;5094741;28;20200;-75
2022/05/18 04:15:51;;;;;;;9.45;8.75;;;13.20;99.90;;;;;;5102467;28;20177;-75
2022/05/18 04:18:17;;;;;;;9.88;9.07;;;13.10;99.90;;;;;;5115589;28;20244;-74
2022/05/18 04:20:43;;;;;;;8.32;7.72;;;13.20;99.90;;;;;;5102722;28;20186;-74
2022/05/18 04:23:11;;;;;;;10.30;9.38;;;13.20;99.90;;;;;;5092420;28;20238;-75
2022/05/18 04:25:37;;;;;;;9.57;8.77;;;13.20;99.90;;;;;;5104470;28;20269;-75
2022/05/18 04:28:03;;;;;;;10.43;9.63;;;13.20;99.90;;;;;;5107058;28;20328;-74
2022/05/18 04:30:29;;;;;;;10.55;9.65;;;13.20;99.90;;;;;;5092964;28;20227;-74
2022/05/18 04:32:55;;;;;;;9.98;9.18;;;13.30;99.90;;;;;;5094315;28;20170;-74
2022/05/18 04:35:23;;;;;;;10.80;9.90;;;13.40;99.90;;;;;;5088535;28;20186;-74
2022/05/18 04:37:49;;;;;;;10.73;9.82;;;13.40;99.90;;;;;;5090817;28;20213;-73
2022/05/18 04:40:15;;;;;;;10.65;9.65;;;13.50;99.90;;;;;;5089377;28;20167;-74
2022/05/18 04:42:41;;;;;;;9.82;9.02;;;13.50;99.90;;;;;;5089261;28;20644;-74
2022/05/18 04:45:09;;;;;;;10.02;9.23;;;13.60;99.90;;;;;;5094680;28;20189;-75
2022/05/18 04:47:35;;;;;;;10.77;9.77;;;13.70;99.90;;;;;;5094154;28;20191;-75
2022/05/18 04:50:01;;;;;;;11.55;10.45;;;13.80;99.90;;;;;;5091377;28;20202;-75
2022/05/18 04:52:27;;;;;;;10.88;9.98;;;13.90;99.90;;;;;;5090653;28;20186;-76
2022/05/18 04:54:52;;;;;;;11.77;10.45;;;14.00;99.90;;;;;;5084809;28;20179;-76
2022/05/18 04:57:18;;;;;;;10.38;9.57;;;14.20;99.90;;;;;;5094057;28;20540;-76
2022/05/18 04:59:44;;;;;;;10.75;9.75;;;14.40;99.90;;;;;;5089482;28;20178;-76
2022/05/18 05:02:10;;;;;;;10.18;9.38;;;14.70;99.90;;;;;;5090930;28;20265;-77
2022/05/18 05:04:37;;;;;;;10.38;9.45;;;14.90;99.90;;;;;;5093890;28;20202;-77
2022/05/18 05:07:04;;;;;;;10.32;9.43;;;15.10;99.90;;;;;;5092889;28;20581;-77
2022/05/18 05:09:29;;;;;;;9.82;8.93;;;15.10;99.90;;;;;;5096291;28;20214;-77
2022/05/18 05:11:56;;;;;;;9.57;8.68;;;15.30;99.90;;;;;;5093971;28;20475;-76
2022/05/18 05:14:22;;;;;;;10.40;9.40;;;15.50;99.90;;;;;;5096505;28;20224;-76
2022/05/18 05:16:48;;;;;;;11.70;8.57;;;15.80;99.90;;;;;;5087257;28;20470;-76
2022/05/18 05:19:14;;;;;;;10.18;9.18;;;16.10;99.90;;;;;;5092765;28;20682;-77
2022/05/18 05:21:44;;;;;;;8.93;8.15;;;16.40;99.90;;;;;;5093506;28;20185;-77
2022/05/18 05:24:12;;;;;;;9.68;8.77;;;16.70;99.90;;;;;;5097825;28;20191;-77
2022/05/18 05:26:38;;;;;;;8.88;8.20;;;17.00;99.90;;;;;;5095271;28;20611;-77
2022/05/18 05:29:04;;;;;;;9.68;8.48;;;17.30;99.90;;;;;;5093602;28;20237;-80
2022/05/18 05:31:30;;;;;;;11.68;8.00;;;17.50;99.90;;;;;;5109527;28;20203;-82
2022/05/18 05:33:56;;;;;;;9.82;8.35;;;17.70;99.90;;;;;;5115920;28;20268;-81
2022/05/18 05:36:22;;;;;;;8.68;7.95;;;18.00;99.90;;;;;;5104431;28;20682;-81
2022/05/18 05:38:49;;;;;;;9.38;8.48;;;18.10;99.90;;;;;;5100146;28;20198;-81
2022/05/18 05:41:15;;;;;;;7.85;7.22;;;18.30;99.90;;;;;;5103532;28;20170;-81
2022/05/18 05:43:41;;;;;;;9.50;7.95;;;18.50;99.90;;;;;;5095985;28;20194;-82
2022/05/18 05:46:10;;;;;;;9.05;8.30;;;18.50;99.90;;;;;;5106571;28;20255;-82
2022/05/18 05:48:36;;;;;;;9.02;8.23;;;18.50;99.90;;;;;;5105276;28;20210;-81
2022/05/18 05:51:04;;;;;;;8.95;8.10;;;18.50;99.90;;;;;;5110873;28;20661;-82
2022/05/18 05:53:32;;;;;;;7.80;7.20;;;18.50;99.90;;;;;;5114329;28;20185;-81
2022/05/18 05:55:58;;;;;;;8.60;7.70;;;18.40;99.90;;;;;;5109721;28;20177;-82
2022/05/18 05:58:25;;;;;;;8.55;7.85;;;18.50;99.90;;;;;;5117170;28;20198;-83
2022/05/18 06:00:52;;;;;;;8.85;7.40;;;18.60;99.90;;;;;;5111649;28;20185;-85
2022/05/18 06:03:19;;;;;;;7.47;6.88;;;18.70;99.90;;;;;;5109426;28;20174;-84
2022/05/18 06:05:44;;;;;;;7.32;6.72;;;18.90;99.90;;;;;;5113774;28;20211;-83
2022/05/18 06:08:10;;;;;;;7.55;6.97;;;19.10;99.90;;;;;;5108032;28;20195;-85
2022/05/18 06:10:36;;;;;;;7.35;6.75;;;19.20;99.90;;;;;;5114522;28;20170;-83
2022/05/18 06:13:11;;;;;;;7.53;6.82;;;19.30;99.90;;;;;;5118201;28;20603;-82
2022/05/18 06:15:37;;;;;;;8.45;7.63;;;19.20;99.90;;;;;;5112110;28;20189;-84
2022/05/18 06:18:03;;;;;;;7.85;7.25;;;19.50;99.90;;;;;;5116332;28;20195;-83
2022/05/18 06:20:29;;;;;;;7.45;6.75;;;19.80;99.90;;;;;;5111022;28;20591;-84
2022/05/18 06:22:57;;;;;;;7.75;7.15;;;20.10;99.90;;;;;;5102908;28;20188;-84
2022/05/18 06:25:23;;;;;;;7.97;7.18;;;20.20;99.90;;;;;;5109563;28;20231;-83
2022/05/18 06:27:49;;;;;;;7.20;6.55;;;20.10;99.90;;;;;;5105024;28;20206;-83
2022/05/18 06:30:16;;;;;;;7.40;6.75;;;20.10;99.90;;;;;;5102188;28;20248;-81
2022/05/18 06:32:41;;;;;;;7.93;6.95;;;20.00;99.90;;;;;;5101966;28;20166;-79
2022/05/18 06:35:07;;;;;;;7.22;6.68;;;20.10;99.90;;;;;;5096353;28;20187;-83
2022/05/18 06:37:34;;;;;;;6.88;6.20;;;20.30;99.90;;;;;;5086173;28;20228;-80
2022/05/18 06:40:02;;;;;;;7.28;6.68;;;20.30;99.90;;;;;;5099049;28;20178;-83
2022/05/18 06:42:28;;;;;;;7.78;7.18;;;20.20;99.90;;;;;;5092409;28;20232;-82
2022/05/18 06:44:54;;;;;;;7.78;7.00;;;20.10;99.90;;;;;;5109914;28;20211;-83
2022/05/18 06:47:19;;;;;;;7.95;6.80;;;20.10;99.90;;;;;;5110058;28;20175;-84
2022/05/18 06:49:47;;;;;;;7.10;6.60;;;19.80;99.90;;;;;;5111120;28;20213;-81
2022/05/18 06:52:12;;;;;;;7.30;6.80;;;19.70;99.90;;;;;;5112184;28;20166;-81
2022/05/18 06:54:38;;;;;;;7.55;6.75;;;19.70;99.90;;;;;;5110417;28;20631;-83
2022/05/18 06:57:05;;;;;;;8.75;8.05;;;19.40;99.90;;;;;;5111902;28;20176;-81
2022/05/18 06:59:31;;;;;;;8.20;7.55;;;19.10;99.90;;;;;;5109418;28;20198;-83
2022/05/18 07:01:57;;;;;;;7.72;7.03;;;19.00;99.90;;;;;;5100028;28;20207;-83
2022/05/18 07:04:26;;;;;;;7.97;7.10;;;19.10;99.90;;;;;;5091389;28;20182;-85
2022/05/18 07:06:52;;;;;;;7.53;6.88;;;19.10;99.90;;;;;;5104202;28;20198;-84
2022/05/18 07:09:20;;;;;;;7.32;6.63;;;19.10;99.90;;;;;;5096091;28;20217;-82
2022/05/18 07:11:49;;;;;;;6.95;6.45;;;19.20;99.90;;;;;;5100550;28;20170;-82
2022/05/18 07:14:16;;;;;;;8.32;7.40;;;19.40;99.90;;;;;;5092098;28;20181;-80
2022/05/18 07:16:43;;;;;;;7.22;6.72;;;19.50;99.90;;;;;;5099499;28;20181;-81
2022/05/18 07:19:09;;;;;;;7.85;7.35;;;19.60;99.90;;;;;;5102079;28;20194;-81
2022/05/18 07:21:35;;;;;;;6.82;6.22;;;19.60;99.90;;;;;;5097632;28;20186;-82
2022/05/18 07:24:01;;;;;;;7.10;6.43;;;19.60;99.90;;;;;;5097464;28;20205;-83
2022/05/18 07:26:28;;;;;;;7.55;6.95;;;19.60;99.90;;;;;;5093143;28;20190;-75
2022/05/18 07:28:56;;;;;;;7.15;6.60;;;19.70;99.90;;;;;;5092771;28;20621;-77
2022/05/18 07:31:22;;;;;;;6.93;6.32;;;19.70;99.90;;;;;;5102661;28;20697;-80
2022/05/18 07:33:48;;;;;;;6.40;5.80;;;19.70;99.90;;;;;;5106761;28;20212;-74
2022/05/18 07:36:15;;;;;;;6.25;5.78;;;19.90;99.90;;;;;;5096265;28;20179;-79
2022/05/18 07:38:41;;;;;;;5.90;5.40;;;20.00;99.90;;;;;;5094666;28;20589;-76
2022/05/18 07:41:09;;;;;;;5.85;5.28;;;20.10;99.90;;;;;;5093793;28;20178;-77
2022/05/18 07:43:36;;;;;;;5.35;4.95;;;20.30;99.90;;;;;;5090790;28;20183;-78
2022/05/18 07:46:02;;;;;;;12.85;7.65;;;20.40;99.90;;;;;;5080006;28;20556;-78
2022/05/18 07:48:28;;;;;;;11.40;6.45;;;20.40;99.90;;;;;;5104480;28;20281;-78
2022/05/18 07:50:53;;;;;;;49.67;16.90;;;20.50;99.90;;;;;;5104609;28;20202;-77
2022/05/18 07:53:20;;;;;;;9.80;6.68;;;20.50;99.90;;;;;;5102551;28;20172;-76
2022/05/18 07:55:46;;;;;;;7.28;4.95;;;20.60;99.90;;;;;;5090075;28;20181;-76
2022/05/18 07:58:15;;;;;;;6.00;4.25;;;20.80;99.90;;;;;;5094606;28;20199;-76
2022/05/18 08:00:41;;;;;;;8.90;5.55;;;20.80;99.90;;;;;;5102313;28;20199;-76
2022/05/18 08:03:09;;;;;;;7.20;4.63;;;20.90;99.90;;;;;;5103005;28;20174;-75
2022/05/18 08:05:36;;;;;;;5.57;4.57;;;21.00;99.90;;;;;;5096907;28;20179;-85
2022/05/18 08:08:07;;;;;;;4.80;4.45;;;21.10;99.90;;;;;;5092236;28;20194;-75
2022/05/18 08:16:00;;;;;;;4.80;4.40;;;21.20;99.90;;;;;;5090115;28;20178;-75
2022/05/18 08:18:26;;;;;;;5.35;4.80;;;21.20;99.90;;;;;;5094808;28;20206;-75
2022/05/18 08:20:52;;;;;;;4.97;4.57;;;21.30;99.90;;;;;;5094695;28;20171;-76
2022/05/18 08:23:18;;;;;;;4.18;3.88;;;21.30;99.90;;;;;;5093980;28;20204;-76
2022/05/18 08:25:46;;;;;;;5.00;4.60;;;21.50;99.90;;;;;;5089116;28;20179;-75
2022/05/18 08:28:12;;;;;;;4.45;4.05;;;21.60;99.90;;;;;;5074297;28;20768;-76
2022/05/18 08:30:39;;;;;;;4.32;4.03;;;21.60;99.90;;;;;;5093413;28;20175;-78
2022/05/18 08:33:05;;;;;;;4.97;4.57;;;21.60;99.90;;;;;;5092262;28;20223;-74
2022/05/18 08:35:31;;;;;;;4.88;4.30;;;21.70;99.90;;;;;;5082317;28;20668;-74
2022/05/18 08:37:57;;;;;;;5.63;4.60;;;21.80;99.90;;;;;;5094127;28;20198;-74
2022/05/18 08:40:29;;;;;;;4.93;4.53;;;21.80;99.90;;;;;;5087080;28;20182;-74
2022/05/18 08:43:01;;;;;;;4.38;3.97;;;21.90;99.90;;;;;;5091766;28;20185;-75
2022/05/18 08:45:32;;;;;;;4.65;4.35;;;22.10;99.90;;;;;;5092109;28;20199;-74
2022/05/18 08:48:03;;;;;;;5.15;4.10;;;22.20;99.90;;;;;;5080384;28;20197;-74
2022/05/18 08:50:30;;;;;;;4.30;3.90;;;22.20;99.90;;;;;;5104273;28;20281;-74
2022/05/18 08:53:14;;;;;;;4.03;3.83;;;22.30;99.90;;;;;;5088487;28;20190;-74
2022/05/18 08:56:08;;;;;;;5.72;3.50;;;22.50;99.90;;;;;;5094797;28;20235;-76
2022/05/18 08:58:40;;;;;;;3.75;3.47;;;22.60;99.90;;;;;;5099634;28;20641;-73
2022/05/18 09:01:40;;;;;;;6.10;3.70;;;22.60;99.90;;;;;;5099554;28;20266;-75
2022/05/18 09:04:09;;;;;;;5.72;3.85;;;22.50;99.90;;;;;;5072817;28;20332;-75
2022/05/18 09:07:09;;;;;;;3.60;3.30;;;22.60;99.90;;;;;;5075204;28;20182;-76
2022/05/18 09:12:37;;;;;;;3.47;3.20;;;22.80;99.90;;;;;;5090276;28;20277;-74
2022/05/18 09:15:05;;;;;;;3.83;2.92;;;23.00;99.90;;;;;;5097446;28;20185;-75
2022/05/18 09:17:39;;;;;;;3.10;3.00;;;23.10;99.90;;;;;;5113329;28;20186;-74
2022/05/18 09:20:23;;;;;;;4.78;3.10;;;23.20;99.90;;;;;;5084299;28;20209;-74
2022/05/18 09:22:58;;;;;;;3.42;3.13;;;23.40;99.90;;;;;;5071105;28;20225;-75
2022/05/18 09:25:52;;;;;;;3.55;3.25;;;23.80;99.90;;;;;;5072466;28;20193;-76
2022/05/18 09:28:30;;;;;;;3.75;3.10;;;25.60;99.90;;;;;;5098751;28;20236;-77
2022/05/18 09:31:04;;;;;;;3.83;3.40;;;28.10;99.90;;;;;;5084095;28;20544;-76
2022/05/18 09:34:07;;;;;;;14.68;4.18;;;30.10;95.10;;;;;;5093359;28;20264;-77
2022/05/18 09:36:50;;;;;;;3.67;3.13;;;31.80;82.40;;;;;;5073972;28;20189;-79
2022/05/18 09:39:21;;;;;;;4.72;2.90;;;33.70;70.10;;;;;;5084647;28;20190;-79
2022/05/18 09:42:02;;;;;;;3.00;2.80;;;34.40;64.00;;;;;;5088407;28;20178;-79
2022/05/18 09:44:42;;;;;;;2.88;2.67;;;35.00;58.70;;;;;;5073308;28;20566;-80
2022/05/18 09:47:13;;;;;;;7.68;2.50;;;35.00;58.40;;;;;;5074022;28;20220;-76
2022/05/18 09:49:46;;;;;;;2.40;2.20;;;35.80;58.00;;;;;;5084635;28;20552;-78
2022/05/18 09:52:13;;;;;;;3.00;2.22;;;36.70;53.40;;;;;;5100662;28;20257;-77
2022/05/18 09:54:39;;;;;;;4.32;2.60;;;37.00;53.40;;;;;;5090723;28;20632;-77
2022/05/18 09:57:12;;;;;;;2.78;2.30;;;37.90;50.30;;;;;;5092097;28;20223;-78
2022/05/18 09:59:43;;;;;;;4.97;2.50;;;38.50;48.90;;;;;;5084800;28;20186;-78
2022/05/18 10:08:00;;;;;;;2.75;2.17;;;39.00;46.30;;;;;;5086887;28;20247;-76
2022/05/18 10:10:32;;;;;;;4.10;2.13;;;39.60;45.40;;;;;;5093475;28;20210;-72
2022/05/18 10:13:07;;;;;;;5.93;2.22;;;40.30;44.20;;;;;;5112793;28;20176;-73
2022/05/18 10:15:46;;;;;;;2.13;2.00;;;40.30;45.30;;;;;;5104687;28;20174;-72
2022/05/18 10:18:17;;;;;;;1.90;1.80;;;39.90;44.00;;;;;;5100836;28;20221;-73
2022/05/18 10:20:58;;;;;;;1.85;1.75;;;39.60;43.20;;;;;;5096579;28;20182;-74
2022/05/18 10:23:41;;;;;;;2.38;2.17;;;38.80;42.90;;;;;;5094243;28;20210;-73
2022/05/18 10:26:32;;;;;;;2.55;1.95;;;38.80;45.20;;;;;;5098874;28;20181;-76
2022/05/18 10:29:18;;;;;;;2.17;2.00;;;39.00;43.90;;;;;;5096096;28;20224;-73
2022/05/18 10:31:59;;;;;;;2.97;1.88;;;39.10;42.30;;;;;;5090164;28;20184;-71
2022/05/18 10:34:28;;;;;;;2.13;2.00;;;39.10;43.80;;;;;;5095124;28;20170;-71
2022/05/18 10:36:56;;;;;;;1.73;1.63;;;39.10;44.10;;;;;;5083292;28;20177;-71
2022/05/18 10:39:39;;;;;;;1.98;1.88;;;39.30;43.70;;;;;;5089672;28;20241;-71
2022/05/18 10:42:29;;;;;;;2.00;1.80;;;39.90;42.70;;;;;;5085419;28;20235;-73
2022/05/18 10:44:58;;;;;;;1.85;1.75;;;40.00;42.20;;;;;;5083151;28;20174;-71
2022/05/18 10:47:34;;;;;;;3.90;2.00;;;40.50;42.10;;;;;;5091516;28;20178;-71
2022/05/18 10:50:34;;;;;;;2.15;1.92;;;40.10;40.50;;;;;;5090418;28;20203;-71
2022/05/18 10:53:17;;;;;;;2.00;1.80;;;40.20;41.20;;;;;;5070846;28;20192;-71
2022/05/18 10:56:03;;;;;;;1.73;1.63;;;40.50;41.40;;;;;;5078173;28;20257;-71
2022/05/18 10:58:36;;;;;;;2.30;1.95;;;40.70;39.70;;;;;;5091074;28;20197;-70
2022/05/18 11:01:29;;;;;;;2.30;1.90;;;40.60;39.80;;;;;;5077073;28;20167;-69
2022/05/18 11:04:11;;;;;;;1.73;1.60;;;40.30;39.30;;;;;;5071184;28;20546;-70
2022/05/18 11:06:40;;;;;;;2.38;1.60;;;40.50;39.30;;;;;;5074002;28;20663;-71
2022/05/18 11:09:12;;;;;;;2.47;1.85;;;40.30;40.10;;;;;;5075445;28;20677;-71
2022/05/18 11:12:18;;;;;;;1.80;1.70;;;39.80;40.10;;;;;;5091677;28;20253;-71
2022/05/18 11:15:04;;;;;;;2.72;1.73;;;40.30;39.90;;;;;;5063733;28;20193;-70
2022/05/18 11:17:54;;;;;;;1.52;1.42;;;40.90;39.70;;;;;;5084882;28;20198;-70
2022/05/18 11:20:40;;;;;;;1.70;1.60;;;41.70;38.20;;;;;;5075009;28;20662;-70
2022/05/18 11:23:53;;;;;;;1.52;1.52;;;42.20;38.20;;;;;;5074724;28;20171;-71
2022/05/18 11:26:54;;;;;;;3.03;1.70;;;42.00;38.10;;;;;;5077574;28;20228;-70
2022/05/18 11:29:29;;;;;;;1.50;1.40;;;41.60;37.90;;;;;;5074653;28;20206;-71
2022/05/18 11:32:26;;;;;;;1.63;1.52;;;41.10;38.40;;;;;;5074833;28;20617;-71
2022/05/18 11:35:13;;;;;;;1.80;1.70;;;40.90;39.00;;;;;;5078423;28;20178;-70
2022/05/18 11:38:09;;;;;;;1.77;1.67;;;40.80;39.30;;;;;;5074653;28;20193;-71
2022/05/18 11:40:44;;;;;;;1.95;1.67;;;41.20;38.40;;;;;;5087258;28;20186;-71
2022/05/18 11:43:28;;;;;;;2.13;1.65;;;40.60;40.00;;;;;;5094645;28;20180;-71
2022/05/18 11:45:59;;;;;;;1.85;1.75;;;39.70;40.10;;;;;;5074677;28;20179;-70
2022/05/18 11:48:35;;;;;;;1.85;1.75;;;39.30;40.70;;;;;;5074322;28;20673;-70
2022/05/18 11:51:11;;;;;;;1.70;1.60;;;39.50;40.50;;;;;;5074869;28;20205;-70
2022/05/18 11:53:46;;;;;;;1.92;1.70;;;39.70;40.30;;;;;;5074127;28;20213;-71
2022/05/18 11:56:21;;;;;;;1.67;1.55;;;40.00;39.30;;;;;;5094134;28;20177;-72
2022/05/18 12:02:14;;;;;;;1.73;1.63;;;39.90;39.50;;;;;;5086726;28;20284;-71
2022/05/18 12:04:59;;;;;;;1.67;1.58;;;38.70;40.70;;;;;;5074372;28;20695;-70
2022/05/18 12:07:32;;;;;;;1.48;1.38;;;39.00;40.00;;;;;;5074076;28;20175;-70
2022/05/18 12:10:34;;;;;;;2.47;1.60;;;39.00;39.80;;;;;;5082584;28;20217;-71
2022/05/18 12:13:04;;;;;;;8.50;1.80;;;38.40;40.40;;;;;;5073660;28;20167;-71
2022/05/18 12:15:43;;;;;;;1.67;1.55;;;38.50;40.60;;;;;;5074053;28;20233;-71
2022/05/18 12:18:41;;;;;;;1.60;1.50;;;38.50;39.80;;;;;;5073311;28;20190;-71
2022/05/18 12:21:19;;;;;;;1.77;1.67;;;38.70;39.70;;;;;;5073624;28;20662;-70
2022/05/18 12:23:50;;;;;;;1.73;1.63;;;38.60;40.10;;;;;;5078002;28;20185;-71
2022/05/18 12:26:16;;;;;;;2.63;1.58;;;38.80;39.90;;;;;;5085608;28;20225;-71
2022/05/18 12:28:44;;;;;;;2.10;1.70;;;38.10;40.30;;;;;;5073462;28;20621;-71
2022/05/18 12:31:10;;;;;;;1.88;1.77;;;38.00;40.40;;;;;;5073777;28;20159;-73
2022/05/18 12:34:03;;;;;;;4.10;1.70;;;37.70;40.30;;;;;;5073915;28;20174;-73
2022/05/18 12:36:46;;;;;;;3.38;1.75;;;38.20;40.60;;;;;;5079238;28;20233;-74
2022/05/18 12:39:17;;;;;;;1.45;1.40;;;38.80;40.00;;;;;;5084101;28;20212;-73
2022/05/18 12:41:46;;;;;;;3.35;1.35;;;39.50;39.30;;;;;;5093814;28;20253;-73
2022/05/18 12:44:21;;;;;;;3.95;1.98;;;41.40;37.00;;;;;;5088544;28;20269;-74
2022/05/18 12:47:02;;;;;;;1.40;1.30;;;42.20;36.40;;;;;;5073938;28;20171;-74
2022/05/18 12:49:37;;;;;;;1.27;1.20;;;42.80;36.00;;;;;;5073244;28;20688;-74
2022/05/18 12:52:17;;;;;;;1.63;1.52;;;44.40;34.70;;;;;;5073121;28;20667;-73
2022/05/18 12:54:48;;;;;;;1.25;1.13;;;46.40;32.70;;;;;;5084473;28;20200;-73
2022/05/18 12:57:16;;;;;;;5.95;1.70;;;49.10;30.00;;;;;;5084920;28;20179;-74
2022/05/18 13:00:05;;;;;;;1.48;1.35;;;49.90;30.00;;;;;;5077519;28;20185;-71
2022/05/18 13:02:42;;;;;;;2.22;1.42;;;49.80;30.10;;;;;;5088673;28;20261;-70
2022/05/18 13:05:54;;;;;;;1.50;1.10;;;50.80;30.00;;;;;;5088072;28;20190;-70
2022/05/18 13:08:19;;;;;;;1.20;1.10;;;51.20;28.40;;;;;;5081682;28;20583;-71
2022/05/18 13:11:07;;;;;;;1.45;1.35;;;51.20;28.50;;;;;;5091878;28;20174;-69
2022/05/18 13:13:58;;;;;;;2.03;1.30;;;51.50;28.70;;;;;;5082473;28;20182;-75
2022/05/18 13:16:38;;;;;;;1.60;1.30;;;53.30;27.80;;;;;;5078579;28;20185;-74
2022/05/18 13:19:13;;;;;;;2.17;1.10;;;54.90;26.50;;;;;;5092390;28;20251;-74
2022/05/18 13:21:40;;;;;;;2.22;1.60;;;54.50;26.80;;;;;;5092793;28;20749;-75
2022/05/18 13:24:12;;;;;;;2.28;1.40;;;53.70;26.70;;;;;;5090898;28;20656;-73
2022/05/18 13:26:45;;;;;;;2.03;1.13;;;53.30;27.20;;;;;;5081448;28;20288;-74
2022/05/18 13:29:24;;;;;;;1.83;1.20;;;53.30;27.10;;;;;;5071524;28;20663;-74